createdAt,value
2022-08-17T00:00:34.461Z,58.00
2022-08-17T00:03:10.000Z,58.20
2022-08-17T00:05:41.400Z,58.00
2022-08-17T00:08:10.036Z,58.10
2022-08-17T00:10:38.485Z,58.40
2022-08-17T00:13:08.732Z,58.70
2022-08-17T00:15:38.170Z,59.10
2022-08-17T00:19:01.244Z,59.60
2022-08-17T00:20:54.298Z,59.60
2022-08-17T00:23:23.028Z,59.80
2022-08-17T00:25:51.009Z,59.80
2022-08-17T00:28:20.940Z,60.00
2022-08-17T00:30:53.540Z,60.10
2022-08-17T00:33:24.560Z,60.20
2022-08-17T00:35:53.484Z,60.10
2022-08-17T00:38:21.882Z,60.10
2022-08-17T00:40:52.306Z,60.30
2022-08-17T00:43:31.985Z,60.60
2022-08-17T00:46:03.780Z,60.60
2022-08-17T00:48:32.763Z,60.40
2022-08-17T00:51:08.155Z,60.40
2022-08-17T00:53:40.171Z,60.70
2022-08-17T00:56:12.857Z,61.10
2022-08-17T00:58:41.764Z,61.40
2022-08-17T01:01:13.349Z,61.50
2022-08-17T01:03:51.266Z,61.90
2022-08-17T01:06:19.293Z,62.10
2022-08-17T01:08:47.260Z,62.30
2022-08-17T01:11:15.319Z,62.50
2022-08-17T01:13:45.342Z,62.40
2022-08-17T01:16:17.154Z,62.40
2022-08-17T01:18:47.087Z,62.60
2022-08-17T01:21:23.278Z,63.00
2022-08-17T01:23:52.502Z,63.40
2022-08-17T01:26:21.004Z,63.70
2022-08-17T01:28:54.242Z,63.70
2022-08-17T01:31:24.691Z,64.10
2022-08-17T01:33:53.212Z,64.60
2022-08-17T01:36:21.319Z,64.90
2022-08-17T01:38:49.062Z,65.20
2022-08-17T01:41:18.449Z,65.30
2022-08-17T01:43:49.059Z,65.90
2022-08-17T01:46:22.365Z,66.50
2022-08-17T01:48:51.351Z,66.90
2022-08-17T01:51:19.778Z,67.00
2022-08-17T01:53:52.501Z,67.70
2022-08-17T01:56:24.352Z,68.10
2022-08-17T01:58:52.763Z,68.70
2022-08-17T02:01:26.410Z,69.00
2022-08-17T02:04:00.986Z,69.40
2022-08-17T02:06:44.956Z,69.60
2022-08-17T02:09:19.790Z,70.30
2022-08-17T02:11:52.790Z,70.60
2022-08-17T02:14:22.103Z,71.10
2022-08-17T02:16:50.365Z,71.60
2022-08-17T02:19:18.949Z,72.10
2022-08-17T02:21:49.362Z,72.60
2022-08-17T02:24:59.440Z,73.20
2022-08-17T02:27:12.457Z,73.80
2022-08-17T02:29:40.515Z,74.30
2022-08-17T02:32:25.344Z,74.70
2022-08-17T02:34:56.762Z,75.10
2022-08-17T02:37:25.004Z,75.50
2022-08-17T02:39:53.250Z,75.40
2022-08-17T02:42:26.128Z,75.60
2022-08-17T02:44:54.021Z,76.40
2022-08-17T02:47:21.826Z,75.60
2022-08-17T02:49:54.486Z,75.80
2022-08-17T02:52:42.496Z,76.00
2022-08-17T02:55:14.249Z,76.20
2022-08-17T02:57:43.824Z,76.40
2022-08-17T03:00:19.581Z,76.50
2022-08-17T03:02:47.966Z,76.70
2022-08-17T03:05:18.964Z,76.70
2022-08-17T03:07:46.828Z,76.80
2022-08-17T03:10:15.422Z,76.70
2022-08-17T03:12:45.659Z,76.80
2022-08-17T03:15:16.622Z,77.40
2022-08-17T03:17:44.887Z,77.40
2022-08-17T03:20:14.280Z,77.50
2022-08-17T03:22:53.045Z,77.60
2022-08-17T03:25:24.035Z,77.50
2022-08-17T03:27:53.665Z,77.60
2022-08-17T03:30:22.458Z,77.60
2022-08-17T03:32:52.098Z,77.70
2022-08-17T03:35:23.467Z,77.70
2022-08-17T03:38:00.109Z,77.70
2022-08-17T03:40:58.877Z,77.80
2022-08-17T03:43:23.983Z,78.10
2022-08-17T03:46:26.917Z,78.30
2022-08-17T03:49:14.913Z,78.50
2022-08-17T03:52:00.356Z,78.70
2022-08-17T03:54:45.708Z,78.80
2022-08-17T03:57:14.131Z,78.90
2022-08-17T03:59:43.360Z,78.90
2022-08-17T04:02:17.398Z,79.10
2022-08-17T04:04:45.667Z,79.10
2022-08-17T04:07:13.682Z,79.10
2022-08-17T04:09:42.840Z,79.10
2022-08-17T04:12:10.733Z,79.10
2022-08-17T04:14:51.487Z,79.30
2022-08-17T04:17:24.442Z,79.40
2022-08-17T04:19:52.907Z,79.60
2022-08-17T04:22:33.039Z,79.90
2022-08-17T04:25:05.132Z,80.00
2022-08-17T04:27:33.081Z,80.10
2022-08-17T04:30:01.814Z,80.40
2022-08-17T04:33:02.298Z,80.40
2022-08-17T04:35:20.937Z,80.30
2022-08-17T04:37:48.912Z,80.10
2022-08-17T04:40:35.444Z,80.20
2022-08-17T04:43:05.460Z,80.30
2022-08-17T04:45:33.396Z,80.20
2022-08-17T04:48:03.220Z,80.00
2022-08-17T04:50:31.068Z,79.70
2022-08-17T04:52:59.321Z,79.30
2022-08-17T04:55:27.475Z,79.10
2022-08-17T04:57:55.340Z,78.70
2022-08-17T05:00:25.654Z,79.20
2022-08-17T05:02:55.611Z,78.20
2022-08-17T05:05:27.889Z,78.10
2022-08-17T05:07:57.452Z,77.70
2022-08-17T05:10:27.328Z,77.90
2022-08-17T05:13:00.160Z,76.30
2022-08-17T05:15:33.211Z,75.60
2022-08-17T05:18:04.012Z,75.00
2022-08-17T05:20:33.940Z,74.30
2022-08-17T05:23:07.008Z,73.80
2022-08-17T05:25:41.245Z,73.30
2022-08-17T05:28:10.761Z,72.80
2022-08-17T05:30:40.225Z,72.30
2022-08-17T05:33:11.777Z,71.90
2022-08-17T05:35:44.313Z,71.50
2022-08-17T05:38:12.443Z,70.80
2022-08-17T05:40:41.348Z,69.50
2022-08-17T05:43:11.240Z,68.70
2022-08-17T05:45:55.373Z,67.70
2022-08-17T05:48:35.281Z,67.20
2022-08-17T05:51:22.033Z,66.50
2022-08-17T05:53:59.437Z,65.60
2022-08-17T05:56:46.529Z,64.60
2022-08-17T05:59:24.856Z,63.60
2022-08-17T06:02:02.979Z,63.60
2022-08-17T06:04:42.861Z,62.20
2022-08-17T06:07:19.502Z,61.80
2022-08-17T06:09:52.599Z,61.10
2022-08-17T06:12:35.169Z,60.30
2022-08-17T06:15:17.107Z,60.20
2022-08-17T06:17:45.272Z,60.00
2022-08-17T06:20:16.103Z,59.90
2022-08-17T06:22:49.164Z,59.70
2022-08-17T06:25:20.456Z,59.40
2022-08-17T06:28:00.140Z,59.20
2022-08-17T06:30:57.447Z,58.80
2022-08-17T06:33:23.731Z,58.50
2022-08-17T06:36:02.626Z,57.80
2022-08-17T06:38:49.853Z,57.80
2022-08-17T06:41:24.257Z,57.40
2022-08-17T06:44:10.901Z,57.20
2022-08-17T06:46:42.388Z,56.70
2022-08-17T06:49:18.214Z,56.40
2022-08-17T06:51:51.693Z,56.10
2022-08-17T06:54:31.129Z,55.60
2022-08-17T06:57:06.620Z,55.10
2022-08-17T06:59:55.755Z,54.60
2022-08-17T07:03:02.434Z,54.40
2022-08-17T07:05:29.229Z,54.10
2022-08-17T07:08:03.015Z,53.90
2022-08-17T07:10:37.500Z,53.90
2022-08-17T07:13:22.549Z,53.30
2022-08-17T07:15:56.493Z,53.50
2022-08-17T07:18:27.913Z,53.40
2022-08-17T07:21:00.816Z,53.00
2022-08-17T07:23:40.073Z,52.50
2022-08-17T07:26:13.156Z,52.10
2022-08-17T07:28:41.217Z,51.50
2022-08-17T07:31:13.252Z,51.50
2022-08-17T07:33:41.306Z,51.50
2022-08-17T07:36:29.823Z,51.60
2022-08-17T07:38:59.083Z,51.20
2022-08-17T07:41:53.104Z,51.30
2022-08-17T07:44:17.782Z,51.30
2022-08-17T07:47:08.804Z,51.00
2022-08-17T07:49:39.253Z,50.70
2022-08-17T07:52:24.273Z,49.60
2022-08-17T07:54:57.578Z,49.10
2022-08-17T07:57:32.815Z,49.30
2022-08-17T08:00:27.281Z,49.30
2022-08-17T08:03:26.196Z,49.20
2022-08-17T08:06:00.148Z,49.10
2022-08-17T08:08:31.966Z,49.00
2022-08-17T08:11:04.117Z,49.10
2022-08-17T08:13:33.610Z,49.30
2022-08-17T08:16:23.821Z,49.40
2022-08-17T08:18:56.886Z,49.50
2022-08-17T08:21:34.312Z,49.50
2022-08-17T08:24:20.649Z,49.50
2022-08-17T08:26:57.615Z,49.60
2022-08-17T08:29:37.885Z,49.60
2022-08-17T08:32:12.764Z,49.40
2022-08-17T08:35:01.113Z,49.30
2022-08-17T08:37:43.541Z,49.20
2022-08-17T08:40:29.787Z,49.20
2022-08-17T08:43:06.944Z,49.40
2022-08-17T08:45:44.484Z,49.60
2022-08-17T08:48:53.226Z,49.80
2022-08-17T08:51:22.130Z,50.00
2022-08-17T08:53:58.549Z,50.20
2022-08-17T08:56:35.136Z,50.60
2022-08-17T08:59:08.687Z,50.80
2022-08-17T09:01:46.034Z,51.10
2022-08-17T09:04:44.906Z,51.20
2022-08-17T09:07:33.590Z,51.50
2022-08-17T09:10:09.467Z,51.80
2022-08-17T09:12:47.527Z,52.00
2022-08-17T09:15:20.813Z,52.20
2022-08-17T09:18:21.288Z,52.20
2022-08-17T09:20:50.639Z,52.30
2022-08-17T09:23:30.888Z,52.40
2022-08-17T09:26:01.726Z,52.50
2022-08-17T09:28:35.004Z,52.70
2022-08-17T09:31:08.144Z,52.80
2022-08-17T09:33:43.587Z,53.00
2022-08-17T09:36:19.037Z,53.10
2022-08-17T09:38:58.289Z,53.10
2022-08-17T09:41:33.204Z,53.30
2022-08-17T09:44:09.533Z,53.30
2022-08-17T09:46:54.481Z,53.40
2022-08-17T09:49:31.785Z,53.40
2022-08-17T09:52:04.246Z,53.40
2022-08-17T09:54:39.049Z,53.50
2022-08-17T09:57:31.341Z,53.60
2022-08-17T10:00:13.713Z,53.70
2022-08-17T10:03:00.679Z,53.70
2022-08-17T10:05:37.439Z,53.80
2022-08-17T10:08:12.317Z,54.00
2022-08-17T10:10:52.480Z,54.30
2022-08-17T10:13:35.330Z,54.40
2022-08-17T10:16:08.729Z,54.60
2022-08-17T10:18:51.758Z,54.80
2022-08-17T10:21:39.172Z,55.00
2022-08-17T10:24:28.548Z,55.10
2022-08-17T10:27:01.077Z,55.20
2022-08-17T10:29:47.408Z,55.40
2022-08-17T10:32:26.651Z,55.60
2022-08-17T10:35:03.667Z,55.90
2022-08-17T10:37:50.943Z,56.10
2022-08-17T10:40:35.283Z,56.40
2022-08-17T10:43:14.528Z,56.60
2022-08-17T10:46:17.105Z,57.00
2022-08-17T10:48:40.544Z,57.30
2022-08-17T10:51:12.469Z,57.60
2022-08-17T10:53:55.717Z,57.90
2022-08-17T10:56:45.556Z,58.00
2022-08-17T10:59:51.485Z,58.10
2022-08-17T11:02:26.146Z,58.10
2022-08-17T11:05:10.276Z,58.20
2022-08-17T11:07:58.726Z,58.30
2022-08-17T11:10:49.919Z,58.40
2022-08-17T11:13:33.066Z,58.40
2022-08-17T11:16:18.428Z,58.50
2022-08-17T11:19:18.357Z,58.30
2022-08-17T11:22:33.564Z,58.90
2022-08-17T11:25:15.437Z,57.50
2022-08-17T11:27:45.067Z,55.80
2022-08-17T11:30:16.018Z,53.70
2022-08-17T11:32:54.773Z,51.40
2022-08-17T11:35:35.061Z,50.20
2022-08-17T11:38:17.582Z,48.80
2022-08-17T11:41:14.171Z,48.10
2022-08-17T11:44:19.610Z,46.00
2022-08-17T11:47:20.445Z,45.60
2022-08-17T11:50:27.669Z,45.60
2022-08-17T11:52:55.953Z,45.60
2022-08-17T11:56:04.590Z,45.80
2022-08-17T11:58:39.425Z,45.70
2022-08-17T12:01:09.684Z,45.80
2022-08-17T12:03:55.309Z,45.50
2022-08-17T12:06:49.246Z,45.20
2022-08-17T12:09:20.791Z,45.40
2022-08-17T12:11:55.101Z,45.50
2022-08-17T12:15:09.003Z,45.70
2022-08-17T12:17:40.971Z,45.80
2022-08-17T12:20:21.435Z,45.70
2022-08-17T12:22:57.546Z,45.60
2022-08-17T12:25:32.956Z,45.60
2022-08-17T12:28:06.825Z,45.80
2022-08-17T12:30:37.304Z,45.40
2022-08-17T12:33:13.290Z,45.30
2022-08-17T12:35:59.586Z,45.00
2022-08-17T12:38:32.933Z,44.20
2022-08-17T12:41:23.271Z,44.20
2022-08-17T12:43:58.539Z,44.20
2022-08-17T12:46:26.484Z,44.10
2022-08-17T12:48:58.971Z,44.30
2022-08-17T12:51:29.261Z,44.50
2022-08-17T12:53:58.698Z,44.80
2022-08-17T12:56:26.668Z,45.30
2022-08-17T12:58:55.508Z,45.40
2022-08-17T13:01:24.973Z,45.50
2022-08-17T13:03:59.678Z,45.60
2022-08-17T13:06:32.174Z,45.70
2022-08-17T13:09:12.253Z,45.90
2022-08-17T13:11:48.757Z,46.30
2022-08-17T13:14:18.403Z,46.50
2022-08-17T13:16:52.266Z,46.30
2022-08-17T13:19:40.568Z,46.30
2022-08-17T13:22:12.338Z,46.20
2022-08-17T13:24:54.417Z,46.20
2022-08-17T13:27:24.990Z,46.20
2022-08-17T13:29:55.774Z,46.10
2022-08-17T13:32:35.791Z,46.50
2022-08-17T13:35:35.389Z,46.70
2022-08-17T13:38:10.325Z,47.00
2022-08-17T13:40:50.662Z,47.10
2022-08-17T13:43:44.498Z,47.10
2022-08-17T13:46:20.260Z,46.80
2022-08-17T13:48:59.312Z,46.80
2022-08-17T13:51:31.215Z,47.10
2022-08-17T13:54:05.919Z,47.20
2022-08-17T13:56:54.259Z,47.10
2022-08-17T13:59:53.422Z,46.80
2022-08-17T14:02:25.941Z,46.80
2022-08-17T14:04:56.684Z,46.50
2022-08-17T14:07:28.864Z,46.60
2022-08-17T14:10:00.239Z,46.50
2022-08-17T14:12:32.809Z,46.30
2022-08-17T14:15:01.106Z,46.10
2022-08-17T14:17:36.375Z,46.20
2022-08-17T14:20:07.210Z,46.50
2022-08-17T14:22:37.635Z,46.80
2022-08-17T14:25:08.657Z,47.50
2022-08-17T14:27:52.005Z,48.10
2022-08-17T14:30:23.026Z,49.20
2022-08-17T14:32:51.867Z,49.00
2022-08-17T14:35:23.086Z,49.30
2022-08-17T14:37:51.606Z,49.40
2022-08-17T14:40:22.541Z,49.40
2022-08-17T14:42:52.972Z,49.40
2022-08-17T14:45:31.752Z,49.70
2022-08-17T14:48:01.951Z,49.90
2022-08-17T14:50:29.809Z,50.40
2022-08-17T14:53:01.580Z,50.70
2022-08-17T14:55:29.633Z,51.00
2022-08-17T14:57:58.992Z,51.40
2022-08-17T15:00:27.165Z,51.60
2022-08-17T15:02:57.866Z,51.90
2022-08-17T15:05:31.242Z,51.90
2022-08-17T15:07:59.437Z,51.80
2022-08-17T15:10:27.779Z,51.90
2022-08-17T15:12:56.097Z,52.20
2022-08-17T15:15:25.647Z,52.30
2022-08-17T15:17:53.732Z,52.30
2022-08-17T15:20:24.636Z,52.80
2022-08-17T15:22:54.986Z,53.00
2022-08-17T15:25:23.403Z,53.20
2022-08-17T15:27:51.454Z,53.30
2022-08-17T15:30:20.389Z,53.20
2022-08-17T15:32:55.258Z,53.30
2022-08-17T15:35:27.737Z,53.40
2022-08-17T15:37:57.306Z,53.50
2022-08-17T15:40:25.197Z,53.60
2022-08-17T15:42:53.125Z,53.60
2022-08-17T15:45:26.268Z,53.80
2022-08-17T15:47:55.559Z,53.60
2022-08-17T15:50:23.386Z,53.30
2022-08-17T15:52:57.627Z,53.20
2022-08-17T15:55:25.822Z,52.90
2022-08-17T15:57:53.948Z,52.70
2022-08-17T16:00:23.941Z,52.50
2022-08-17T16:03:20.362Z,52.00
2022-08-17T16:05:41.872Z,52.00
2022-08-17T16:08:10.917Z,52.10
2022-08-17T16:10:38.966Z,51.90
2022-08-17T16:13:17.989Z,51.90
2022-08-17T16:15:56.578Z,51.90
2022-08-17T16:18:28.220Z,52.00
2022-08-17T16:20:57.429Z,52.30
2022-08-17T16:23:25.592Z,52.70
2022-08-17T16:25:54.420Z,53.00
2022-08-17T16:28:35.766Z,53.30
2022-08-17T16:31:05.795Z,53.60
2022-08-17T16:33:37.297Z,53.70
2022-08-17T16:36:07.986Z,53.90
2022-08-17T16:38:36.633Z,54.00
2022-08-17T16:41:04.923Z,54.10
2022-08-17T16:43:33.103Z,54.30
2022-08-17T16:46:01.655Z,54.70
2022-08-17T16:48:30.534Z,54.90
2022-08-17T16:51:04.687Z,55.30
2022-08-17T16:53:34.052Z,55.40
2022-08-17T16:56:01.973Z,55.40
2022-08-17T16:58:30.070Z,55.40
2022-08-17T17:00:59.259Z,55.50
2022-08-17T17:03:29.284Z,55.90
2022-08-17T17:06:09.622Z,56.20
2022-08-17T17:08:44.882Z,56.50
2022-08-17T17:11:16.288Z,56.80
2022-08-17T17:13:49.271Z,57.10
2022-08-17T17:16:21.571Z,57.40
2022-08-17T17:19:01.579Z,57.30
2022-08-17T17:21:38.771Z,57.40
2022-08-17T17:24:16.069Z,57.60
2022-08-17T17:27:07.250Z,57.90
2022-08-17T17:29:53.413Z,58.20
2022-08-17T17:32:28.959Z,58.40
2022-08-17T17:35:04.885Z,58.50
2022-08-17T17:37:36.237Z,58.70
2022-08-17T17:40:09.476Z,59.10
2022-08-17T17:42:41.489Z,59.20
2022-08-17T17:45:17.800Z,59.40
2022-08-17T17:47:46.344Z,59.60
2022-08-17T17:50:14.568Z,59.80
2022-08-17T17:52:51.791Z,59.90
2022-08-17T17:55:45.610Z,60.10
2022-08-17T17:58:26.301Z,60.30
2022-08-17T18:01:07.233Z,60.60
2022-08-17T18:04:00.234Z,61.10
2022-08-17T18:06:41.390Z,61.00
2022-08-17T18:09:23.129Z,61.00
2022-08-17T18:12:06.607Z,61.00
2022-08-17T18:14:50.877Z,61.00
2022-08-17T18:17:19.672Z,61.10
2022-08-17T18:19:48.398Z,61.30
2022-08-17T18:22:19.314Z,61.60
2022-08-17T18:24:49.542Z,61.60
2022-08-17T18:27:24.795Z,61.80
2022-08-17T18:29:54.065Z,62.00
2022-08-17T18:32:43.562Z,62.20
2022-08-17T18:35:30.443Z,62.60
2022-08-17T18:38:20.387Z,62.80
2022-08-17T18:41:02.999Z,63.00
2022-08-17T18:43:44.511Z,63.40
2022-08-17T18:46:29.728Z,63.60
2022-08-17T18:49:00.002Z,64.10
2022-08-17T18:51:42.106Z,64.70
2022-08-17T18:54:17.408Z,65.30
2022-08-17T18:56:50.690Z,65.90
2022-08-17T18:59:30.152Z,66.50
2022-08-17T19:02:38.756Z,67.00
2022-08-17T19:05:14.156Z,67.40
2022-08-17T19:07:44.240Z,68.10
2022-08-17T19:10:22.156Z,68.60
2022-08-17T19:13:00.675Z,69.00
2022-08-17T19:15:35.641Z,69.20
2022-08-17T19:18:06.727Z,70.30
2022-08-17T19:20:38.572Z,69.70
2022-08-17T19:23:25.104Z,69.60
2022-08-17T19:25:55.322Z,69.60
2022-08-17T19:28:28.894Z,69.90
2022-08-17T19:30:59.612Z,70.40
2022-08-17T19:33:27.840Z,70.90
2022-08-17T19:36:03.801Z,71.30
2022-08-17T19:38:45.714Z,71.60
2022-08-17T19:41:21.085Z,72.10
2022-08-17T19:44:03.426Z,72.70
2022-08-17T19:46:43.052Z,73.20
2022-08-17T19:49:33.225Z,73.60
2022-08-17T19:52:22.237Z,74.00
2022-08-17T19:54:57.460Z,74.50
2022-08-17T19:57:35.144Z,75.30
2022-08-17T20:00:10.378Z,76.10
2022-08-17T20:02:46.991Z,76.80
2022-08-17T20:05:18.173Z,77.50
2022-08-17T20:07:53.413Z,78.10
2022-08-17T20:10:29.427Z,79.00
2022-08-17T20:13:01.505Z,79.70
2022-08-17T20:15:32.357Z,80.00
2022-08-17T20:18:06.605Z,80.70
2022-08-17T20:20:42.642Z,80.90
2022-08-17T20:23:29.790Z,81.40
2022-08-17T20:26:06.638Z,82.00
2022-08-17T20:28:38.776Z,82.50
2022-08-17T20:31:42.672Z,83.00
2022-08-17T20:34:36.964Z,84.20
2022-08-17T20:37:08.675Z,84.60
2022-08-17T20:39:40.488Z,84.80
2022-08-17T20:42:31.922Z,85.10
2022-08-17T20:45:04.625Z,85.70
2022-08-17T20:47:35.397Z,85.80
2022-08-17T20:50:09.362Z,86.30
2022-08-17T20:52:47.821Z,86.80
2022-08-17T20:55:55.697Z,87.30
2022-08-17T20:58:47.128Z,88.10
2022-08-17T21:01:34.693Z,88.70
2022-08-17T21:04:09.015Z,88.90
2022-08-17T21:07:17.385Z,89.40
2022-08-17T21:09:46.295Z,90.10
2022-08-17T21:12:42.071Z,90.30
2022-08-17T21:15:28.424Z,90.70
2022-08-17T21:18:06.545Z,90.90
2022-08-17T21:20:44.015Z,91.10
2022-08-17T21:23:34.276Z,91.30
2022-08-17T21:26:25.549Z,91.60
2022-08-17T21:29:30.172Z,91.90
2022-08-17T21:32:24.199Z,92.00
2022-08-17T21:35:25.131Z,92.40
2022-08-17T21:37:58.182Z,92.70
2022-08-17T21:40:29.712Z,92.70
2022-08-17T21:43:02.909Z,92.80
2022-08-17T21:45:35.409Z,93.00
2022-08-17T21:48:14.908Z,93.20
2022-08-17T21:50:45.992Z,93.30
2022-08-17T21:53:25.406Z,93.40
2022-08-17T21:55:56.288Z,93.60
2022-08-17T21:58:31.448Z,93.60
2022-08-17T22:01:28.054Z,93.80
2022-08-17T22:04:00.933Z,94.00
2022-08-17T22:06:34.172Z,93.90
2022-08-17T22:09:14.643Z,94.20
2022-08-17T22:11:54.020Z,94.40
2022-08-17T22:14:26.306Z,94.40
2022-08-17T22:17:14.569Z,94.30
2022-08-17T22:19:44.719Z,94.40
2022-08-17T22:22:26.325Z,94.40
2022-08-17T22:24:58.445Z,94.70
2022-08-17T22:27:56.600Z,94.90
2022-08-17T22:30:32.277Z,95.60
2022-08-17T22:33:01.488Z,95.80
2022-08-17T22:35:40.486Z,96.10
2022-08-17T22:38:33.935Z,96.40
2022-08-17T22:41:35.070Z,96.80
2022-08-17T22:44:14.980Z,96.90
2022-08-17T22:47:10.741Z,97.30
2022-08-17T22:49:53.976Z,97.40
2022-08-17T22:52:34.778Z,97.80
2022-08-17T22:55:24.558Z,98.00
2022-08-17T22:58:10.479Z,97.80
2022-08-17T23:00:42.937Z,97.90
2022-08-17T23:03:19.139Z,98.00
2022-08-17T23:05:50.743Z,98.10
2022-08-17T23:08:21.254Z,98.10
2022-08-17T23:10:49.631Z,98.20
2022-08-17T23:13:17.567Z,98.20
2022-08-17T23:15:48.053Z,98.60
2022-08-17T23:18:17.471Z,98.70
2022-08-17T23:20:45.798Z,98.80
2022-08-17T23:23:15.304Z,98.80
2022-08-17T23:25:46.239Z,98.80
2022-08-17T23:28:14.328Z,99.00
2022-08-17T23:30:46.531Z,99.20
2022-08-17T23:33:19.647Z,99.60
2022-08-17T23:35:47.454Z,99.70
2022-08-17T23:38:15.757Z,99.90
2022-08-17T23:40:43.658Z,99.90
2022-08-17T23:43:24.471Z,99.90
2022-08-17T23:45:57.559Z,99.90
2022-08-17T23:48:32.548Z,99.90
2022-08-17T23:51:08.905Z,99.90
2022-08-17T23:53:38.177Z,99.90
2022-08-17T23:56:09.447Z,99.90
2022-08-17T23:58:38.706Z,99.90
